Time;durP1;ratioP1;P1;durP2;ratioP2;P2;SDS_P1;SDS_P2;PMS_P1;PMS_P2;Temp;Humidity;BMP_temperature;BMP_pressure;BME280_temperature;BME280_humidity;BME280_pressure;Samples;Min_cycle;Max_cycle;Signal;HPM_P1;HPM_P2
2021/11/17 02:27:54;;;;;;;;;;;;;;;;;;6253726;23;20377;-90
2021/11/17 02:30:20;;;;;;;;;;;;;;;;;;6252825;23;19923;-90
2021/11/17 02:32:47;;;;;;;;;;;;;;;;;;6252931;23;19935;-90
2021/11/17 02:35:13;;;;;;;;;;;;;;;;;;6251922;23;19997;-91
2021/11/17 02:37:40;;;;;;;;;;;;;;;;;;6252449;23;19919;-91
2021/11/17 02:40:06;;;;;;;;;;;;;;;;;;6251774;23;19939;-92
2021/11/17 02:42:32;;;;;;;;;;;;;;;;;;6253771;23;20444;-89
2021/11/17 02:44:59;;;;;;;;;;;;;;;;;;6253675;23;19920;-88
2021/11/17 02:47:25;;;;;;;;;;;;;;;;;;6252140;23;20654;-89
2021/11/17 02:49:51;;;;;;;;;;;;;;;;;;6251759;23;19924;-91
2021/11/17 02:52:18;;;;;;;;;;;;;;;;;;6251751;23;19930;-91
2021/11/17 02:54:44;;;;;;;;;;;;;;;;;;6251818;23;19924;-91
2021/11/17 02:57:10;;;;;;;;;;;;;;;;;;6251939;23;19923;-91
2021/11/17 02:59:36;;;;;;;;;;;;;;;;;;6252325;23;19924;-91
2021/11/17 03:02:03;;;;;;;;;;;;;;;;;;6253292;23;19923;-91
2021/11/17 03:04:29;;;;;;;;;;;;;;;;;;6253122;23;19931;-91
2021/11/17 03:06:55;;;;;;;;;;;;;;;;;;6252116;23;19932;-91
2021/11/17 03:09:22;;;;;;;;;;;;;;;;;;6252355;23;19927;-92
2021/11/17 03:11:48;;;;;;;;;;;;;;;;;;6251517;23;19924;-91
2021/11/17 03:14:14;;;;;;;;;;;;;;;;;;6251969;23;19924;-91
2021/11/17 03:16:41;;;;;;;;;;;;;;;;;;6252549;23;19927;-91
2021/11/17 03:19:07;;;;;;;;;;;;;;;;;;6253646;23;19923;-91
2021/11/17 03:21:33;;;;;;;;;;;;;;;;;;6254222;23;19923;-91
2021/11/17 03:24:00;;;;;;;;;;;;;;;;;;6254925;23;19924;-91
2021/11/17 03:26:26;;;;;;;;;;;;;;;;;;6254147;23;20412;-91
2021/11/17 03:28:52;;;;;;;;;;;;;;;;;;6254122;23;19947;-91
2021/11/17 03:31:18;;;;;;;;;;;;;;;;;;6253753;23;19919;-92
2021/11/17 03:33:45;;;;;;;;;;;;;;;;;;6252660;23;19924;-91
2021/11/17 03:36:11;;;;;;;;;;;;;;;;;;6253329;23;19950;-91
2021/11/17 03:38:37;;;;;;;;;;;;;;;;;;6254150;23;19934;-91
2021/11/17 03:41:03;;;;;;;;;;;;;;;;;;6254276;23;21506;-92
2021/11/17 03:43:30;;;;;;;;;;;;;;;;;;6254499;23;19924;-91
2021/11/17 03:45:56;;;;;;;;;;;;;;;;;;6254634;23;19973;-91
2021/11/17 03:48:22;;;;;;;;;;;;;;;;;;6254499;23;19923;-91
2021/11/17 03:50:48;;;;;;;;;;;;;;;;;;6255215;23;19927;-91
2021/11/17 03:53:15;;;;;;;;;;;;;;;;;;6256161;23;20432;-91
2021/11/17 03:55:41;;;;;;;;;;;;;;;;;;6255339;23;19927;-92
2021/11/17 03:58:07;;;;;;;;;;;;;;;;;;6255545;23;19923;-91
2021/11/17 04:00:34;;;;;;;;;;;;;;;;;;6255930;23;19923;-92
2021/11/17 04:03:00;;;;;;;;;;;;;;;;;;6255275;23;19924;-92
2021/11/17 04:05:26;;;;;;;;;;;;;;;;;;6254651;23;19971;-91
2021/11/17 04:07:52;;;;;;;;;;;;;;;;;;6255535;23;19923;-91
2021/11/17 04:10:19;;;;;;;;;;;;;;;;;;6255647;23;19931;-91
2021/11/17 04:12:45;;;;;;;;;;;;;;;;;;6253798;23;19926;-91
2021/11/17 04:15:11;;;;;;;;;;;;;;;;;;6253696;23;19924;-90
2021/11/17 04:17:37;;;;;;;;;;;;;;;;;;6255601;23;20326;-91
2021/11/17 04:20:04;;;;;;;;;;;;;;;;;;6256888;23;19919;-92
2021/11/17 04:22:30;;;;;;;;;;;;;;;;;;6267538;23;19930;-92
2021/11/17 04:24:56;;;;;;;;;;;;;;;;;;6260093;22;19927;-92
2021/11/17 04:27:23;;;;;;;;;;;;;;;;;;6253098;23;19923;-91
2021/11/17 04:29:49;;;;;;;;;;;;;;;;;;6252821;23;19931;-91
2021/11/17 04:32:15;;;;;;;;;;;;;;;;;;6254666;23;20594;-92
2021/11/17 04:34:41;;;;;;;;;;;;;;;;;;6254830;23;19923;-92
2021/11/17 04:37:08;;;;;;;;;;;;;;;;;;6253482;23;19949;-91
2021/11/17 04:39:34;;;;;;;;;;;;;;;;;;6252616;23;19926;-90
2021/11/17 04:42:00;;;;;;;;;;;;;;;;;;6253406;23;19973;-91
2021/11/17 04:44:27;;;;;;;;;;;;;;;;;;6254044;23;19924;-91
2021/11/17 04:46:53;;;;;;;;;;;;;;;;;;6253210;23;19928;-91
2021/11/17 04:49:19;;;;;;;;;;;;;;;;;;6253041;23;20487;-92
2021/11/17 04:51:45;;;;;;;;;;;;;;;;;;6253148;23;19924;-90
2021/11/17 04:54:12;;;;;;;;;;;;;;;;;;6254078;23;19937;-91
2021/11/17 04:56:38;;;;;;;;;;;;;;;;;;6253392;23;19924;-91
2021/11/17 04:59:04;;;;;;;;;;;;;;;;;;6253505;23;19924;-91
2021/11/17 05:01:31;;;;;;;;;;;;;;;;;;6253209;23;20428;-91
2021/11/17 05:03:57;;;;;;;;;;;;;;;;;;6252175;23;19927;-90
2021/11/17 05:06:23;;;;;;;;;;;;;;;;;;6253686;23;19923;-91
2021/11/17 05:08:49;;;;;;;;;;;;;;;;;;6254172;23;19923;-91
2021/11/17 05:11:16;;;;;;;;;;;;;;;;;;6254970;23;19924;-91
2021/11/17 05:13:42;;;;;;;;;;;;;;;;;;6254465;23;20376;-91
2021/11/17 05:16:09;;;;;;;;;;;;;;;;;;6255212;23;19932;-91
2021/11/17 05:18:35;;;;;;;;;;;;;;;;;;6252162;23;19919;-91
2021/11/17 05:21:02;;;;;;;;;;;;;;;;;;6253285;23;19920;-90
2021/11/17 05:23:29;;;;;;;;;;;;;;;;;;6254760;23;19924;-90
2021/11/17 05:25:55;;;;;;;;;;;;;;;;;;6254879;23;19924;-90
2021/11/17 05:28:21;;;;;;;;;;;;;;;;;;6253097;23;19934;-90
2021/11/17 05:30:47;;;;;;;;;;;;;;;;;;6252921;23;19924;-91
2021/11/17 05:33:14;;;;;;;;;;;;;;;;;;6251577;23;20318;-91
2021/11/17 05:35:40;;;;;;;;;;;;;;;;;;6251371;23;19919;-90
2021/11/17 05:38:06;;;;;;;;;;;;;;;;;;6253761;23;19929;-91
2021/11/17 05:40:33;;;;;;;;;;;;;;;;;;6253824;23;19927;-92
2021/11/17 05:42:59;;;;;;;;;;;;;;;;;;6254354;23;19924;-91
2021/11/17 05:45:25;;;;;;;;;;;;;;;;;;6253903;23;19923;-90
2021/11/17 05:47:51;;;;;;;;;;;;;;;;;;6253885;23;19923;-91
2021/11/17 05:50:18;;;;;;;;;;;;;;;;;;6253853;23;19927;-91
2021/11/17 05:52:44;;;;;;;;;;;;;;;;;;6254206;23;19926;-91
2021/11/17 05:55:10;;;;;;;;;;;;;;;;;;6254755;23;20330;-91
2021/11/17 05:57:37;;;;;;;;;;;;;;;;;;6253771;23;19930;-90
2021/11/17 06:00:03;;;;;;;;;;;;;;;;;;6253734;23;19924;-91
2021/11/17 06:02:30;;;;;;;;;;;;;;;;;;6254180;23;19942;-91
2021/11/17 06:04:57;;;;;;;;;;;;;;;;;;6253964;23;19934;-91
2021/11/17 06:07:23;;;;;;;;;;;;;;;;;;6252694;23;19923;-91
2021/11/17 06:09:49;;;;;;;;;;;;;;;;;;6251268;23;19924;-91
2021/11/17 06:12:15;;;;;;;;;;;;;;;;;;6252970;23;19938;-91
2021/11/17 06:14:42;;;;;;;;;;;;;;;;;;6253040;23;19920;-91
2021/11/17 06:17:08;;;;;;;;;;;;;;;;;;6252264;23;19921;-91
2021/11/17 06:19:34;;;;;;;;;;;;;;;;;;6251870;23;19920;-91
2021/11/17 06:22:00;;;;;;;;;;;;;;;;;;6251001;23;19926;-91
2021/11/17 06:24:27;;;;;;;;;;;;;;;;;;6252512;23;19923;-91
2021/11/17 06:26:53;;;;;;;;;;;;;;;;;;6251648;23;19924;-91
2021/11/17 06:29:19;;;;;;;;;;;;;;;;;;6250239;23;19924;-92
2021/11/17 06:31:46;;;;;;;;;;;;;;;;;;6253003;23;20024;-92
2021/11/17 06:34:12;;;;;;;;;;;;;;;;;;6252918;23;19929;-90
2021/11/17 06:36:38;;;;;;;;;;;;;;;;;;6252297;23;19935;-91
2021/11/17 06:39:04;;;;;;;;;;;;;;;;;;6250714;23;19924;-91
2021/11/17 06:41:31;;;;;;;;;;;;;;;;;;6250545;23;20346;-90
2021/11/17 06:43:57;;;;;;;;;;;;;;;;;;6250939;23;19927;-91
2021/11/17 06:46:23;;;;;;;;;;;;;;;;;;6252012;23;19930;-91
2021/11/17 06:48:50;;;;;;;;;;;;;;;;;;6253018;23;19924;-90
2021/11/17 06:51:16;;;;;;;;;;;;;;;;;;6253070;23;19934;-90
2021/11/17 06:53:42;;;;;;;;;;;;;;;;;;6253337;23;19946;-91
2021/11/17 06:56:08;;;;;;;;;;;;;;;;;;6254574;23;19927;-90
2021/11/17 06:58:35;;;;;;;;;;;;;;;;;;6251498;23;19931;-92
2021/11/17 07:01:01;;;;;;;;;;;;;;;;;;6250912;23;19931;-93
2021/11/17 07:03:29;;;;;;;;;;;;;;;;;;6260745;22;19923;-92
2021/11/17 07:05:55;;;;;;;;;;;;;;;;;;6257150;22;19919;-90
2021/11/17 07:08:23;;;;;;;;;;;;;;;;;;6248328;23;19932;-91
2021/11/17 07:10:49;;;;;;;;;;;;;;;;;;6251042;23;19967;-90
2021/11/17 07:13:15;;;;;;;;;;;;;;;;;;6251324;23;20593;-90
2021/11/17 07:15:42;;;;;;;;;;;;;;;;;;6250049;23;19923;-91
2021/11/17 07:18:08;;;;;;;;;;;;;;;;;;6252167;23;20664;-91
2021/11/17 07:20:34;;;;;;;;;;;;;;;;;;6252199;23;19923;-92
2021/11/17 07:23:01;;;;;;;;;;;;;;;;;;6249633;23;19956;-90
2021/11/17 07:25:27;;;;;;;;;;;;;;;;;;6250673;23;19920;-92
2021/11/17 07:27:55;;;;;;;;;;;;;;;;;;6251018;23;19927;-92
2021/11/17 07:30:21;;;;;;;;;;;;;;;;;;6253571;23;19995;-92
2021/11/17 07:32:48;;;;;;;;;;;;;;;;;;6253866;23;19930;-91
2021/11/17 07:35:14;;;;;;;;;;;;;;;;;;6251554;23;19924;-90
2021/11/17 07:37:40;;;;;;;;;;;;;;;;;;6252474;23;19923;-91
2021/11/17 07:40:07;;;;;;;;;;;;;;;;;;6251648;23;19954;-92
2021/11/17 07:42:33;;;;;;;;;;;;;;;;;;6253500;23;19938;-91
2021/11/17 07:44:59;;;;;;;;;;;;;;;;;;6252268;23;19977;-90
2021/11/17 07:47:25;;;;;;;;;;;;;;;;;;6246456;23;19923;-90
2021/11/17 07:49:52;;;;;;;;;;;;;;;;;;6247434;23;19942;-90
2021/11/17 07:52:18;;;;;;;;;;;;;;;;;;6248255;23;19946;-90
2021/11/17 07:54:44;;;;;;;;;;;;;;;;;;6250096;23;19946;-90
2021/11/17 07:57:10;;;;;;;;;;;;;;;;;;6248711;23;19924;-90
2021/11/17 07:59:37;;;;;;;;;;;;;;;;;;6246416;23;19998;-89
2021/11/17 08:02:03;;;;;;;;;;;;;;;;;;6250890;23;19924;-90
2021/11/17 08:04:34;;;;;;;;;;;;;;;;;;6252736;23;19924;-89
2021/11/17 08:07:00;;;;;;;;;;;;;;;;;;6253241;23;19923;-89
2021/11/17 08:09:26;;;;;;;;;;;;;;;;;;6253853;23;19958;-89
2021/11/17 08:11:53;;;;;;;;;;;;;;;;;;6254019;23;19923;-89
2021/11/17 08:14:19;;;;;;;;;;;;;;;;;;6254512;23;19958;-89
2021/11/17 08:16:45;;;;;;;;;;;;;;;;;;6254279;23;19923;-89
2021/11/17 08:19:11;;;;;;;;;;;;;;;;;;6252042;23;19924;-89
2021/11/17 08:21:38;;;;;;;;;;;;;;;;;;6253551;23;20012;-89
2021/11/17 08:24:04;;;;;;;;;;;;;;;;;;6254612;23;19930;-89
2021/11/17 08:26:31;;;;;;;;;;;;;;;;;;6255730;23;19923;-89
2021/11/17 08:28:57;;;;;;;;;;;;;;;;;;6255029;23;19924;-90
2021/11/17 08:31:24;;;;;;;;;;;;;;;;;;6254802;23;19924;-90
2021/11/17 08:33:51;;;;;;;;;;;;;;;;;;6251996;23;19923;-88
2021/11/17 08:36:17;;;;;;;;;;;;;;;;;;6253457;23;19954;-89
2021/11/17 08:38:43;;;;;;;;;;;;;;;;;;6254992;23;19946;-89
2021/11/17 08:41:09;;;;;;;;;;;;;;;;;;6254661;23;19924;-90
2021/11/17 08:43:36;;;;;;;;;;;;;;;;;;6254663;23;20521;-89
2021/11/17 08:46:02;;;;;;;;;;;;;;;;;;6254592;23;20297;-89
2021/11/17 08:48:28;;;;;;;;;;;;;;;;;;6252250;23;19986;-89
2021/11/17 08:50:55;;;;;;;;;;;;;;;;;;6253377;23;19977;-90
2021/11/17 08:53:21;;;;;;;;;;;;;;;;;;6254209;23;19920;-91
2021/11/17 08:55:47;;;;;;;;;;;;;;;;;;6253685;23;19942;-90
2021/11/17 08:58:14;;;;;;;;;;;;;;;;;;6255052;23;20411;-91
2021/11/17 09:00:40;;;;;;;;;;;;;;;;;;6254564;23;19993;-89
2021/11/17 09:03:06;;;;;;;;;;;;;;;;;;6253788;23;19934;-91
2021/11/17 09:05:33;;;;;;;;;;;;;;;;;;6253005;23;19923;-90
2021/11/17 09:07:59;;;;;;;;;;;;;;;;;;6254744;23;19946;-92
2021/11/17 09:10:25;;;;;;;;;;;;;;;;;;6255247;23;19943;-91
2021/11/17 09:12:52;;;;;;;;;;;;;;;;;;6254499;23;19920;-91
2021/11/17 09:15:20;;;;;;;;;;;;;;;;;;6254776;23;19954;-90
2021/11/17 09:17:46;;;;;;;;;;;;;;;;;;6252819;23;19990;-91
2021/11/17 09:20:12;;;;;;;;;;;;;;;;;;6251109;23;19939;-90
2021/11/17 09:22:39;;;;;;;;;;;;;;;;;;6254672;23;19942;-91
2021/11/17 09:25:05;;;;;;;;;;;;;;;;;;6254513;23;19923;-91
2021/11/17 09:27:31;;;;;;;;;;;;;;;;;;6254065;23;19946;-91
2021/11/17 09:29:57;;;;;;;;;;;;;;;;;;6254203;23;19923;-91
2021/11/17 09:32:24;;;;;;;;;;;;;;;;;;6253993;23;19927;-90
2021/11/17 09:34:50;;;;;;;;;;;;;;;;;;6254252;23;19923;-91
2021/11/17 09:37:16;;;;;;;;;;;;;;;;;;6255473;23;19923;-90
2021/11/17 09:39:46;;;;;;;;;;;;;;;;;;6250709;23;19985;-93
2021/11/17 09:42:13;;;;;;;;;;;;;;;;;;6257204;23;19908;-91
2021/11/17 09:44:40;;;;;;;;;;;;;;;;;;6263961;23;19908;-91
2021/11/17 09:47:06;;;;;;;;;;;;;;;;;;6252299;23;19920;-91
2021/11/17 09:49:32;;;;;;;;;;;;;;;;;;6249945;23;19927;-91
2021/11/17 09:51:58;;;;;;;;;;;;;;;;;;6254222;23;19942;-91
2021/11/17 09:54:26;;;;;;;;;;;;;;;;;;6253990;23;19954;-93
2021/11/17 09:56:52;;;;;;;;;;;;;;;;;;6253297;23;19920;-92
2021/11/17 09:59:18;;;;;;;;;;;;;;;;;;6252494;23;19924;-91
2021/11/17 10:01:45;;;;;;;;;;;;;;;;;;6254059;23;19923;-92
2021/11/17 10:04:12;;;;;;;;;;;;;;;;;;6254023;23;19919;-92
2021/11/17 10:09:55;;;;;;;;;;;;;;;;;;6182054;23;19931;-91
2021/11/17 10:15:04;;;;;;;;;;;;;;;;;;6253427;23;19974;-91
2021/11/17 10:17:31;;;;;;;;;;;;;;;;;;6254114;23;19928;-92
2021/11/17 10:19:57;;;;;;;;;;;;;;;;;;6254172;23;19923;-92
2021/11/17 10:22:23;;;;;;;;;;;;;;;;;;6253972;23;19978;-91
2021/11/17 10:24:49;;;;;;;;;;;;;;;;;;6254265;23;19969;-90
2021/11/17 10:27:16;;;;;;;;;;;;;;;;;;6254295;23;19923;-91
2021/11/17 10:29:42;;;;;;;;;;;;;;;;;;6253856;23;19927;-91
2021/11/17 10:32:08;;;;;;;;;;;;;;;;;;6254175;23;19923;-93
2021/11/17 10:34:34;;;;;;;;;;;;;;;;;;6252691;23;19924;-93
2021/11/17 10:37:01;;;;;;;;;;;;;;;;;;6253369;23;20609;-92
2021/11/17 10:39:27;;;;;;;;;;;;;;;;;;6253127;23;20591;-90
2021/11/17 10:41:55;;;;;;;;;;;;;;;;;;6253976;23;19985;-92
2021/11/17 10:44:22;;;;;;;;;;;;;;;;;;6254807;23;19923;-91
2021/11/17 10:46:48;;;;;;;;;;;;;;;;;;6253859;23;19974;-91
2021/11/17 10:49:14;;;;;;;;;;;;;;;;;;6253009;23;19970;-91
2021/11/17 10:51:40;;;;;;;;;;;;;;;;;;6253065;23;19928;-91
2021/11/17 10:54:07;;;;;;;;;;;;;;;;;;6251612;23;19924;-92
2021/11/17 10:56:33;;;;;;;;;;;;;;;;;;6251435;23;19919;-93
2021/11/17 10:58:59;;;;;;;;;;;;;;;;;;6251699;23;19920;-91
2021/11/17 11:01:26;;;;;;;;;;;;;;;;;;6252343;23;19919;-91
2021/11/17 11:03:52;;;;;;;;;;;;;;;;;;6226441;23;19926;-92
2021/11/17 11:06:19;;;;;;;;;;;;;;;;;;6253427;23;19927;-90
2021/11/17 11:08:45;;;;;;;;;;;;;;;;;;6251419;23;19934;-92
2021/11/17 11:11:11;;;;;;;;;;;;;;;;;;6251984;23;19950;-92
2021/11/17 11:13:37;;;;;;;;;;;;;;;;;;6253305;23;19946;-91
2021/11/17 11:16:04;;;;;;;;;;;;;;;;;;6253376;23;19928;-91
2021/11/17 11:18:30;;;;;;;;;;;;;;;;;;6252965;23;19923;-92
2021/11/17 11:20:56;;;;;;;;;;;;;;;;;;6252647;23;19931;-94
2021/11/17 11:23:23;;;;;;;;;;;;;;;;;;6251004;23;19924;-92
2021/11/17 11:25:49;;;;;;;;;;;;;;;;;;6250500;23;19935;-92
2021/11/17 11:28:15;;;;;;;;;;;;;;;;;;6253340;23;19919;-91
2021/11/17 11:30:42;;;;;;;;;;;;;;;;;;6252746;23;19935;-91
2021/11/17 11:33:08;;;;;;;;;;;;;;;;;;6253151;23;19920;-93
2021/11/17 11:35:34;;;;;;;;;;;;;;;;;;6253031;23;19919;-92
2021/11/17 11:38:01;;;;;;;;;;;;;;;;;;6253570;23;19964;-91
2021/11/17 11:40:27;;;;;;;;;;;;;;;;;;6253292;23;19924;-91
2021/11/17 11:42:53;;;;;;;;;;;;;;;;;;6252255;23;19919;-91
2021/11/17 11:45:21;;;;;;;;;;;;;;;;;;6252100;23;19958;-91
2021/11/17 11:47:50;;;;;;;;;;;;;;;;;;6254134;23;19928;-91
2021/11/17 11:50:16;;;;;;;;;;;;;;;;;;6255110;23;19931;-91
2021/11/17 11:52:43;;;;;;;;;;;;;;;;;;6255920;23;19924;-91
2021/11/17 11:55:11;;;;;;;;;;;;;;;;;;6255513;23;19956;-92
2021/11/17 11:57:37;;;;;;;;;;;;;;;;;;6254925;23;19938;-92
2021/11/17 12:00:03;;;;;;;;;;;;;;;;;;6254729;23;19985;-93
2021/11/17 12:02:29;;;;;;;;;;;;;;;;;;6256845;23;19935;-91
2021/11/17 12:04:56;;;;;;;;;;;;;;;;;;6255133;23;19946;-92
2021/11/17 12:07:22;;;;;;;;;;;;;;;;;;6255732;23;19923;-91
2021/11/17 12:09:48;;;;;;;;;;;;;;;;;;6254996;23;19946;-90
2021/11/17 12:12:14;;;;;;;;;;;;;;;;;;6255727;23;20314;-92
2021/11/17 12:14:44;;;;;;;;;;;;;;;;;;6255291;23;19930;-92
2021/11/17 12:17:10;;;;;;;;;;;;;;;;;;6255946;23;19923;-91
2021/11/17 12:19:37;;;;;;;;;;;;;;;;;;6255960;23;19923;-93
2021/11/17 12:22:03;;;;;;;;;;;;;;;;;;6259011;23;19920;-91
2021/11/17 12:24:31;;;;;;;;;;;;;;;;;;6263738;23;19923;-89
2021/11/17 12:26:57;;;;;;;;;;;;;;;;;;6256608;23;19924;-89
2021/11/17 12:29:23;;;;;;;;;;;;;;;;;;6251328;23;19923;-91
2021/11/17 12:31:50;;;;;;;;;;;;;;;;;;6252922;23;19919;-91
2021/11/17 12:34:16;;;;;;;;;;;;;;;;;;6253153;23;19950;-88
2021/11/17 12:36:42;;;;;;;;;;;;;;;;;;6254214;23;20297;-90
2021/11/17 12:39:08;;;;;;;;;;;;;;;;;;6255216;23;20354;-90
2021/11/17 12:41:36;;;;;;;;;;;;;;;;;;6255054;23;19969;-92
2021/11/17 12:44:02;;;;;;;;;;;;;;;;;;6254241;23;19931;-93
2021/11/17 12:46:28;;;;;;;;;;;;;;;;;;6253852;23;19985;-92
2021/11/17 12:48:55;;;;;;;;;;;;;;;;;;6255953;23;20020;-92
2021/11/17 12:51:21;;;;;;;;;;;;;;;;;;6254713;23;19932;-92
2021/11/17 12:53:47;;;;;;;;;;;;;;;;;;6255478;23;19919;-92
2021/11/17 12:56:14;;;;;;;;;;;;;;;;;;6255146;23;19942;-92
2021/11/17 12:58:40;;;;;;;;;;;;;;;;;;6255277;23;19930;-92
2021/11/17 13:01:06;;;;;;;;;;;;;;;;;;6253661;23;19923;-92
2021/11/17 13:03:32;;;;;;;;;;;;;;;;;;6253625;23;19930;-92
2021/11/17 13:05:59;;;;;;;;;;;;;;;;;;6254398;23;19924;-93
2021/11/17 13:08:25;;;;;;;;;;;;;;;;;;6254939;23;19944;-93
2021/11/17 13:10:51;;;;;;;;;;;;;;;;;;6255441;23;20609;-95
2021/11/17 13:13:18;;;;;;;;;;;;;;;;;;6253864;23;19998;-94
2021/11/17 13:15:44;;;;;;;;;;;;;;;;;;6253137;23;19942;-92
2021/11/17 13:18:10;;;;;;;;;;;;;;;;;;6252672;23;19923;-92
2021/11/17 13:20:37;;;;;;;;;;;;;;;;;;6253169;23;20577;-93
2021/11/17 13:23:03;;;;;;;;;;;;;;;;;;6255859;23;19920;-95
2021/11/17 13:25:29;;;;;;;;;;;;;;;;;;6254532;23;19923;-92
2021/11/17 13:27:55;;;;;;;;;;;;;;;;;;6253288;23;19924;-92
2021/11/17 13:30:22;;;;;;;;;;;;;;;;;;6253300;23;19923;-92
2021/11/17 13:32:48;;;;;;;;;;;;;;;;;;6253617;23;19924;-93
2021/11/17 13:35:14;;;;;;;;;;;;;;;;;;6253303;23;19980;-93
2021/11/17 13:37:40;;;;;;;;;;;;;;;;;;6255072;23;19923;-94
2021/11/17 13:40:07;;;;;;;;;;;;;;;;;;6254263;23;19924;-93
2021/11/17 13:42:33;;;;;;;;;;;;;;;;;;6254110;23;20083;-94
2021/11/17 13:44:59;;;;;;;;;;;;;;;;;;6251747;23;19923;-94
2021/11/17 13:47:26;;;;;;;;;;;;;;;;;;6253267;23;19930;-94
2021/11/17 13:49:52;;;;;;;;;;;;;;;;;;6253760;23;19927;-94
2021/11/17 13:52:18;;;;;;;;;;;;;;;;;;6253223;23;19923;-94
2021/11/17 13:54:44;;;;;;;;;;;;;;;;;;6250998;23;19923;-94
2021/11/17 13:57:11;;;;;;;;;;;;;;;;;;6251971;23;19923;-93
2021/11/17 13:59:37;;;;;;;;;;;;;;;;;;6254933;23;19931;-93
2021/11/17 14:02:03;;;;;;;;;;;;;;;;;;6250860;23;19924;-94
2021/11/17 14:04:30;;;;;;;;;;;;;;;;;;6249472;23;19927;-94
2021/11/17 14:06:56;;;;;;;;;;;;;;;;;;6243060;23;19946;-94
2021/11/17 14:09:22;;;;;;;;;;;;;;;;;;6248535;23;19923;-93
2021/11/17 14:11:48;;;;;;;;;;;;;;;;;;6251979;23;19923;-93
2021/11/17 14:14:15;;;;;;;;;;;;;;;;;;6251631;23;19920;-94
2021/11/17 14:16:41;;;;;;;;;;;;;;;;;;6250273;23;19924;-94
2021/11/17 14:19:07;;;;;;;;;;;;;;;;;;6253504;23;20464;-93
2021/11/17 14:21:34;;;;;;;;;;;;;;;;;;6253593;23;19923;-94
2021/11/17 14:24:00;;;;;;;;;;;;;;;;;;6253679;23;19923;-93
2021/11/17 14:26:26;;;;;;;;;;;;;;;;;;6253213;23;19950;-93
2021/11/17 14:28:52;;;;;;;;;;;;;;;;;;6253453;23;19923;-92
2021/11/17 14:31:21;;;;;;;;;;;;;;;;;;6253876;23;19924;-92
2021/11/17 14:33:50;;;;;;;;;;;;;;;;;;6253663;23;19969;-92
2021/11/17 14:36:17;;;;;;;;;;;;;;;;;;6253775;23;19927;-92
2021/11/17 14:38:43;;;;;;;;;;;;;;;;;;6253351;23;19923;-93
2021/11/17 14:41:09;;;;;;;;;;;;;;;;;;6226248;23;20471;-93
2021/11/17 14:43:36;;;;;;;;;;;;;;;;;;6250405;23;19923;-93
2021/11/17 14:46:02;;;;;;;;;;;;;;;;;;6248486;23;19935;-92
2021/11/17 14:48:28;;;;;;;;;;;;;;;;;;6250072;23;19919;-93
2021/11/17 14:50:55;;;;;;;;;;;;;;;;;;6253855;23;19950;-93
2021/11/17 14:53:21;;;;;;;;;;;;;;;;;;6265435;23;19934;-93
2021/11/17 14:55:47;;;;;;;;;;;;;;;;;;6257036;23;19958;-92
2021/11/17 14:58:14;;;;;;;;;;;;;;;;;;6252029;23;19923;-92
2021/11/17 15:00:40;;;;;;;;;;;;;;;;;;6251582;23;19931;-93
2021/11/17 15:03:06;;;;;;;;;;;;;;;;;;6250611;23;19951;-92
2021/11/17 15:05:33;;;;;;;;;;;;;;;;;;6250612;23;19927;-92
2021/11/17 15:07:59;;;;;;;;;;;;;;;;;;6250718;23;19929;-92
2021/11/17 15:10:25;;;;;;;;;;;;;;;;;;6250303;23;19946;-90
2021/11/17 15:12:51;;;;;;;;;;;;;;;;;;6249997;23;20649;-91
2021/11/17 15:15:18;;;;;;;;;;;;;;;;;;6252352;23;20457;-92
2021/11/17 15:17:44;;;;;;;;;;;;;;;;;;6250872;23;19923;-92
2021/11/17 15:20:10;;;;;;;;;;;;;;;;;;6250711;23;19920;-92
2021/11/17 15:22:41;;;;;;;;;;;;;;;;;;6250737;23;19923;-91
2021/11/17 15:25:07;;;;;;;;;;;;;;;;;;6250619;23;19931;-91
2021/11/17 15:27:33;;;;;;;;;;;;;;;;;;6223450;23;19923;-91
2021/11/17 15:29:59;;;;;;;;;;;;;;;;;;6250273;23;19923;-91
2021/11/17 15:32:26;;;;;;;;;;;;;;;;;;6250371;23;19958;-91
2021/11/17 15:34:52;;;;;;;;;;;;;;;;;;6248021;23;19950;-91
2021/11/17 15:37:18;;;;;;;;;;;;;;;;;;6250080;23;19943;-91
2021/11/17 15:39:44;;;;;;;;;;;;;;;;;;6252491;23;19930;-91
2021/11/17 15:42:11;;;;;;;;;;;;;;;;;;6252706;23;19923;-91
2021/11/17 15:44:37;;;;;;;;;;;;;;;;;;6252812;23;19923;-92
2021/11/17 15:47:03;;;;;;;;;;;;;;;;;;6251883;23;19930;-92
2021/11/17 15:49:29;;;;;;;;;;;;;;;;;;6248849;23;19994;-94
2021/11/17 15:51:57;;;;;;;;;;;;;;;;;;6250486;23;19950;-93
2021/11/17 15:54:23;;;;;;;;;;;;;;;;;;6251598;23;19923;-92
2021/11/17 15:56:50;;;;;;;;;;;;;;;;;;6251716;23;19923;-93
2021/11/17 15:59:16;;;;;;;;;;;;;;;;;;6252530;23;19919;-93
2021/11/17 16:01:43;;;;;;;;;;;;;;;;;;6253423;23;19923;-93
2021/11/17 16:04:09;;;;;;;;;;;;;;;;;;6252656;23;19939;-92
2021/11/17 16:06:36;;;;;;;;;;;;;;;;;;6252323;23;19943;-92
2021/11/17 16:09:02;;;;;;;;;;;;;;;;;;6253003;23;19919;-91
2021/11/17 16:11:28;;;;;;;;;;;;;;;;;;6252722;23;19923;-93
2021/11/17 16:13:55;;;;;;;;;;;;;;;;;;6252525;23;19923;-92
2021/11/17 16:16:25;;;;;;;;;;;;;;;;;;6250544;23;19924;-93
2021/11/17 16:18:52;;;;;;;;;;;;;;;;;;6243783;23;19930;-93
2021/11/17 16:21:18;;;;;;;;;;;;;;;;;;6245267;23;19924;-92
2021/11/17 16:26:28;;;;;;;;;;;;;;;;;;6251366;23;19975;-91
2021/11/17 16:28:54;;;;;;;;;;;;;;;;;;6250644;23;19920;-92
2021/11/17 16:31:21;;;;;;;;;;;;;;;;;;6253030;23;19926;-93
2021/11/17 16:33:47;;;;;;;;;;;;;;;;;;6253877;23;19970;-92
2021/11/17 16:36:13;;;;;;;;;;;;;;;;;;6254544;23;19920;-91
2021/11/17 16:38:40;;;;;;;;;;;;;;;;;;6253667;23;19919;-92
2021/11/17 16:41:06;;;;;;;;;;;;;;;;;;6253878;23;19924;-91
2021/11/17 16:43:32;;;;;;;;;;;;;;;;;;6254717;23;19923;-92
2021/11/17 16:45:58;;;;;;;;;;;;;;;;;;6254392;23;19923;-92
2021/11/17 16:48:28;;;;;;;;;;;;;;;;;;6252635;23;19927;-92
2021/11/17 16:50:54;;;;;;;;;;;;;;;;;;6252349;23;19920;-92
2021/11/17 16:53:21;;;;;;;;;;;;;;;;;;6252080;23;19919;-92
2021/11/17 16:55:47;;;;;;;;;;;;;;;;;;6252086;23;19925;-92
2021/11/17 16:58:13;;;;;;;;;;;;;;;;;;6254126;23;19923;-92
2021/11/17 17:00:39;;;;;;;;;;;;;;;;;;6254665;23;19967;-92
2021/11/17 17:03:06;;;;;;;;;;;;;;;;;;6254268;23;19933;-89
2021/11/17 17:05:32;;;;;;;;;;;;;;;;;;6253929;23;20308;-89
2021/11/17 17:07:58;;;;;;;;;;;;;;;;;;6253891;23;20210;-89
2021/11/17 17:10:24;;;;;;;;;;;;;;;;;;6253809;23;21006;-89
2021/11/17 17:12:51;;;;;;;;;;;;;;;;;;6253928;23;19927;-89
2021/11/17 17:15:17;;;;;;;;;;;;;;;;;;6254937;23;19927;-92
2021/11/17 17:17:43;;;;;;;;;;;;;;;;;;6254960;23;19919;-88
2021/11/17 17:20:09;;;;;;;;;;;;;;;;;;6254780;23;19931;-89
2021/11/17 17:22:35;;;;;;;;;;;;;;;;;;6254875;23;19962;-89
2021/11/17 17:25:02;;;;;;;;;;;;;;;;;;6266141;23;19923;-89
2021/11/17 17:27:28;;;;;;;;;;;;;;;;;;6259751;23;19923;-90
2021/11/17 17:29:54;;;;;;;;;;;;;;;;;;6251230;23;19924;-89
2021/11/17 17:32:20;;;;;;;;;;;;;;;;;;6250688;23;19989;-90
2021/11/17 17:34:47;;;;;;;;;;;;;;;;;;6250435;23;20031;-91
2021/11/17 17:37:13;;;;;;;;;;;;;;;;;;6250880;23;19947;-91
2021/11/17 17:39:39;;;;;;;;;;;;;;;;;;6251639;23;19924;-92
2021/11/17 17:42:05;;;;;;;;;;;;;;;;;;6250887;23;19924;-92
2021/11/17 17:44:32;;;;;;;;;;;;;;;;;;6250972;23;19991;-92
2021/11/17 17:46:58;;;;;;;;;;;;;;;;;;6252440;23;19946;-92
2021/11/17 17:49:24;;;;;;;;;;;;;;;;;;6253288;23;20335;-92
2021/11/17 17:51:50;;;;;;;;;;;;;;;;;;6253927;23;19923;-92
2021/11/17 17:54:17;;;;;;;;;;;;;;;;;;6250341;23;19950;-92
2021/11/17 17:56:43;;;;;;;;;;;;;;;;;;6246584;23;19928;-93
2021/11/17 17:59:09;;;;;;;;;;;;;;;;;;6244974;23;19924;-92
2021/11/17 18:01:35;;;;;;;;;;;;;;;;;;6249993;23;19924;-92
2021/11/17 18:04:02;;;;;;;;;;;;;;;;;;6250941;23;19924;-91
2021/11/17 18:06:28;;;;;;;;;;;;;;;;;;6252297;23;20266;-91
2021/11/17 18:08:54;;;;;;;;;;;;;;;;;;6253081;23;20326;-91
2021/11/17 18:11:21;;;;;;;;;;;;;;;;;;6253489;23;19993;-93
2021/11/17 18:13:47;;;;;;;;;;;;;;;;;;6253881;23;19924;-92
2021/11/17 18:16:13;;;;;;;;;;;;;;;;;;6253637;23;20066;-93
2021/11/17 18:18:40;;;;;;;;;;;;;;;;;;6253862;23;19923;-92
2021/11/17 18:21:07;;;;;;;;;;;;;;;;;;6253229;23;19950;-92
2021/11/17 18:23:33;;;;;;;;;;;;;;;;;;6252320;23;19954;-92
2021/11/17 18:25:59;;;;;;;;;;;;;;;;;;6251199;23;20312;-92
2021/11/17 18:28:26;;;;;;;;;;;;;;;;;;6253016;23;19929;-91
2021/11/17 18:30:52;;;;;;;;;;;;;;;;;;6252458;23;19989;-92
2021/11/17 18:33:18;;;;;;;;;;;;;;;;;;6253609;23;19981;-91
2021/11/17 18:35:45;;;;;;;;;;;;;;;;;;6253422;23;19919;-91
2021/11/17 18:38:11;;;;;;;;;;;;;;;;;;6253735;23;20342;-92
2021/11/17 18:40:37;;;;;;;;;;;;;;;;;;6253106;23;20285;-92
2021/11/17 18:43:03;;;;;;;;;;;;;;;;;;6252755;23;19924;-91
2021/11/17 18:45:30;;;;;;;;;;;;;;;;;;6252823;23;19923;-92
2021/11/17 18:47:56;;;;;;;;;;;;;;;;;;6253005;23;19978;-92
2021/11/17 18:50:23;;;;;;;;;;;;;;;;;;6252060;23;19919;-92
2021/11/17 18:52:49;;;;;;;;;;;;;;;;;;6252871;23;19919;-92
2021/11/17 18:55:15;;;;;;;;;;;;;;;;;;6254090;23;19924;-92
2021/11/17 18:57:41;;;;;;;;;;;;;;;;;;6253526;23;19954;-92
2021/11/17 19:00:08;;;;;;;;;;;;;;;;;;6253333;23;19946;-91
2021/11/17 19:02:34;;;;;;;;;;;;;;;;;;6252301;23;19924;-92
2021/11/17 19:05:01;;;;;;;;;;;;;;;;;;6249943;23;19924;-93
2021/11/17 19:07:27;;;;;;;;;;;;;;;;;;6251780;23;19939;-92
2021/11/17 19:09:53;;;;;;;;;;;;;;;;;;6253105;23;19927;-91
2021/11/17 19:12:19;;;;;;;;;;;;;;;;;;6253173;23;19923;-92
2021/11/17 19:14:46;;;;;;;;;;;;;;;;;;6251855;23;19920;-92